Terminal Aerodrome Forecast
Issued by NWS

Home | Current Version | Previous Version | Text Only | Print | Product List | Glossary On
Versions: 1 2 3 4 5 6 7 8 9 10 11 12
000
FTUS46 KSTO 062320
TAFRDD
TAF
KRDD 062320Z 0700/0724 18010KT P6SM SCT250
     FM070400 VRB03KT P6SM SCT250
     FM072100 18008KT P6SM BKN250=

USA.gov is the U.S. government's official web portal to all federal, state and local government web resources and services.